Time;durP1;ratioP1;P1;durP2;ratioP2;P2;SDS_P1;SDS_P2;PMS_P1;PMS_P2;Temp;Humidity;BMP_temperature;BMP_pressure;BME280_temperature;BME280_humidity;BME280_pressure;Samples;Min_cycle;Max_cycle;Signal;HPM_P1;HPM_P2
2021/12/02 00:01:08;;;;;;;4.80;0.95;;;;;;;;;;4959937;28;20085;-73
2021/12/02 00:03:35;;;;;;;9.50;0.95;;;;;;;;;;4960645;28;20046;-72
2021/12/02 00:06:02;;;;;;;7.85;1.08;;;;;;;;;;4964110;28;20419;-74
2021/12/02 00:08:28;;;;;;;11.90;2.75;;;;;;;;;;4965314;28;20034;-74
2021/12/02 00:10:54;;;;;;;8.00;1.27;;;;;;;;;;4963028;28;20129;-74
2021/12/02 00:13:26;;;;;;;5.00;1.20;;;;;;;;;;5001032;28;20443;-73
2021/12/02 00:15:59;;;;;;;10.95;1.25;;;;;;;;;;4977716;28;20381;-73
2021/12/02 00:21:05;;;;;;;5.43;1.17;;;;;;;;;;4965838;28;20126;-75
2021/12/02 00:23:33;;;;;;;11.60;1.30;;;;;;;;;;4978263;28;20110;-73
2021/12/02 00:26:01;;;;;;;7.10;1.50;;;;;;;;;;4974812;28;20482;-73
2021/12/02 00:28:29;;;;;;;7.05;1.00;;;;;;;;;;4979050;28;20025;-76
2021/12/02 00:30:58;;;;;;;11.57;1.70;;;;;;;;;;4984516;28;20038;-76
2021/12/02 00:33:25;;;;;;;14.13;1.77;;;;;;;;;;4975026;28;20027;-72
2021/12/02 00:35:52;;;;;;;9.75;1.55;;;;;;;;;;4990901;28;20116;-75
2021/12/02 00:38:22;;;;;;;15.05;2.20;;;;;;;;;;4976947;28;20421;-73
2021/12/02 00:40:49;;;;;;;14.27;2.88;;;;;;;;;;4973113;28;20113;-75
2021/12/02 00:43:15;;;;;;;12.25;1.80;;;;;;;;;;4980298;28;20476;-73
2021/12/02 00:45:42;;;;;;;11.10;1.80;;;;;;;;;;4990658;28;20121;-73
2021/12/02 00:48:09;;;;;;;14.73;1.40;;;;;;;;;;4978119;28;20097;-72
2021/12/02 00:50:35;;;;;;;13.07;3.13;;;;;;;;;;4970084;28;20027;-73
2021/12/02 00:53:01;;;;;;;13.60;1.90;;;;;;;;;;4989095;28;20023;-73
2021/12/02 00:55:28;;;;;;;10.90;1.50;;;;;;;;;;4973805;28;20038;-74
2021/12/02 00:57:55;;;;;;;15.65;2.78;;;;;;;;;;4978711;28;20030;-73
2021/12/02 01:00:21;;;;;;;7.80;1.50;;;;;;;;;;4973074;28;20049;-74
2021/12/02 01:02:49;;;;;;;13.98;2.17;;;;;;;;;;4974770;28;20521;-74
2021/12/02 01:05:15;;;;;;;14.35;2.38;;;;;;;;;;4978553;28;20085;-74
2021/12/02 01:07:43;;;;;;;6.80;1.40;;;;;;;;;;4977488;28;20026;-74
2021/12/02 01:10:10;;;;;;;10.88;1.30;;;;;;;;;;4974386;28;20042;-74
2021/12/02 01:12:37;;;;;;;13.95;1.60;;;;;;;;;;4972753;28;20068;-73
2021/12/02 01:15:04;;;;;;;11.57;2.15;;;;;;;;;;4971660;28;20125;-74
2021/12/02 01:17:30;;;;;;;12.93;2.63;;;;;;;;;;4975516;28;20157;-73
2021/12/02 01:19:56;;;;;;;6.80;1.65;;;;;;;;;;4974560;28;20027;-74
2021/12/02 01:22:24;;;;;;;15.52;1.77;;;;;;;;;;4986838;28;20389;-75
2021/12/02 01:24:51;;;;;;;10.00;1.40;;;;;;;;;;4973328;28;20038;-74
2021/12/02 01:27:19;;;;;;;15.43;1.65;;;;;;;;;;4978821;28;20043;-75
2021/12/02 01:29:46;;;;;;;15.68;2.53;;;;;;;;;;4975759;28;20081;-73
2021/12/02 01:32:12;;;;;;;12.75;2.10;;;;;;;;;;4973050;28;20053;-73
2021/12/02 01:34:39;;;;;;;13.38;2.80;;;;;;;;;;4971691;28;20081;-74
2021/12/02 01:37:10;;;;;;;8.55;1.73;;;;;;;;;;4974299;28;20042;-74
2021/12/02 01:39:36;;;;;;;13.77;1.85;;;;;;;;;;4972598;28;20408;-74
2021/12/02 01:42:04;;;;;;;12.57;1.50;;;;;;;;;;4980790;28;20121;-73
2021/12/02 01:44:31;;;;;;;11.20;1.70;;;;;;;;;;4969426;28;20471;-72
2021/12/02 01:46:59;;;;;;;12.73;1.85;;;;;;;;;;4975220;28;20042;-73
2021/12/02 01:49:27;;;;;;;10.77;1.77;;;;;;;;;;4969188;28;20034;-72
2021/12/02 01:51:57;;;;;;;10.13;2.22;;;;;;;;;;4988528;28;20034;-73
2021/12/02 01:54:24;;;;;;;9.68;2.75;;;;;;;;;;4971245;28;20104;-74
2021/12/02 01:56:51;;;;;;;12.60;1.83;;;;;;;;;;4972824;28;20735;-75
2021/12/02 01:59:19;;;;;;;11.40;1.88;;;;;;;;;;4971831;28;20061;-73
2021/12/02 02:01:47;;;;;;;12.35;2.22;;;;;;;;;;4974103;28;20034;-73
2021/12/02 02:04:14;;;;;;;7.35;1.75;;;;;;;;;;4972963;28;20180;-74
2021/12/02 02:06:42;;;;;;;11.18;1.40;;;;;;;;;;4971453;28;20113;-74
2021/12/02 02:09:09;;;;;;;11.27;2.25;;;;;;;;;;4974382;28;20034;-72
2021/12/02 02:11:35;;;;;;;13.68;2.05;;;;;;;;;;4973600;28;20531;-73
2021/12/02 02:14:04;;;;;;;9.23;2.25;;;;;;;;;;4968563;28;20125;-73
2021/12/02 02:16:32;;;;;;;6.97;1.17;;;;;;;;;;4972159;28;20030;-73
2021/12/02 02:18:58;;;;;;;9.77;1.85;;;;;;;;;;4976808;28;20062;-75
2021/12/02 02:21:24;;;;;;;15.18;1.58;;;;;;;;;;4956009;28;20042;-73
2021/12/02 02:23:56;;;;;;;17.70;2.78;;;;;;;;;;4972486;28;20030;-72
2021/12/02 02:26:26;;;;;;;15.90;2.47;;;;;;;;;;4970467;28;20043;-73
2021/12/02 02:28:53;;;;;;;5.70;1.15;;;;;;;;;;4974591;28;20035;-73
2021/12/02 02:31:19;;;;;;;11.57;2.13;;;;;;;;;;4987047;28;20163;-74
2021/12/02 02:33:50;;;;;;;11.40;1.50;;;;;;;;;;4974200;28;20031;-74
2021/12/02 02:36:18;;;;;;;14.25;2.78;;;;;;;;;;4974654;28;20046;-74
2021/12/02 02:38:54;;;;;;;12.55;1.52;;;;;;;;;;4975707;28;20038;-73
2021/12/02 02:41:21;;;;;;;12.35;1.50;;;;;;;;;;4995669;28;20374;-73
2021/12/02 02:43:48;;;;;;;8.05;1.25;;;;;;;;;;4972314;28;20523;-73
2021/12/02 02:46:35;;;;;;;11.10;1.60;;;;;;;;;;4970116;28;20114;-74
2021/12/02 02:49:03;;;;;;;19.70;3.63;;;;;;;;;;4995458;28;20030;-75
2021/12/02 02:51:30;;;;;;;7.47;1.95;;;;;;;;;;4971506;28;20074;-73
2021/12/02 02:53:57;;;;;;;19.00;2.38;;;;;;;;;;4990070;28;20402;-75
2021/12/02 02:56:25;;;;;;;11.32;1.75;;;;;;;;;;4970306;28;20031;-74
2021/12/02 03:07:05;;;;;;;12.02;1.67;;;;;;;;;;4998647;28;20029;-74
2021/12/02 03:12:54;;;;;;;11.07;1.52;;;;;;;;;;4975085;28;20114;-74
2021/12/02 03:17:14;;;;;;;10.50;1.85;;;;;;;;;;4976048;28;20088;-72
2021/12/02 03:19:41;;;;;;;9.52;1.27;;;;;;;;;;4970053;28;20448;-74
2021/12/02 03:22:07;;;;;;;10.60;1.52;;;;;;;;;;4970355;28;20066;-75
2021/12/02 03:24:34;;;;;;;9.20;1.20;;;;;;;;;;4971975;28;20061;-74
2021/12/02 03:27:00;;;;;;;8.75;1.23;;;;;;;;;;4977267;28;20096;-73
2021/12/02 03:29:26;;;;;;;11.10;1.60;;;;;;;;;;4972982;28;20027;-72
2021/12/02 03:31:53;;;;;;;6.28;1.42;;;;;;;;;;4972390;28;20114;-73
2021/12/02 03:34:19;;;;;;;7.40;1.33;;;;;;;;;;4970193;28;20042;-73
2021/12/02 03:36:52;;;;;;;9.18;1.58;;;;;;;;;;4975476;28;20483;-73
2021/12/02 03:39:18;;;;;;;10.55;1.42;;;;;;;;;;4972070;28;20035;-73
2021/12/02 03:41:44;;;;;;;5.60;1.67;;;;;;;;;;4973129;28;20125;-73
2021/12/02 03:44:10;;;;;;;9.75;1.27;;;;;;;;;;4967419;28;20034;-74
2021/12/02 03:46:37;;;;;;;14.00;2.17;;;;;;;;;;4992690;28;20035;-74
2021/12/02 03:49:04;;;;;;;9.90;1.60;;;;;;;;;;4990571;28;20130;-74
2021/12/02 03:51:30;;;;;;;9.07;2.17;;;;;;;;;;4987200;28;20472;-74
2021/12/02 03:53:57;;;;;;;8.30;1.45;;;;;;;;;;4971401;28;20030;-74
2021/12/02 03:56:23;;;;;;;16.23;1.52;;;;;;;;;;4974938;28;21242;-74
2021/12/02 03:58:50;;;;;;;12.35;1.75;;;;;;;;;;4977868;28;20031;-74
2021/12/02 04:01:16;;;;;;;16.10;1.83;;;;;;;;;;4992024;28;20478;-74
2021/12/02 04:03:43;;;;;;;8.02;1.67;;;;;;;;;;4993161;28;20032;-74
2021/12/02 04:06:10;;;;;;;17.65;2.08;;;;;;;;;;4972774;28;20035;-73
2021/12/02 04:09:03;;;;;;;12.27;2.15;;;;;;;;;;4975479;28;20029;-73
2021/12/02 04:16:53;;;;;;;8.13;1.40;;;;;;;;;;4973850;28;20112;-74
2021/12/02 04:19:20;;;;;;;9.10;1.63;;;;;;;;;;4971745;28;20503;-75
2021/12/02 04:21:46;;;;;;;13.05;2.05;;;;;;;;;;4978325;28;20112;-74
2021/12/02 04:24:13;;;;;;;8.10;1.77;;;;;;;;;;4979772;28;20027;-75
2021/12/02 04:26:40;;;;;;;5.70;1.05;;;;;;;;;;4978846;28;20030;-75
2021/12/02 04:29:06;;;;;;;4.63;1.17;;;;;;;;;;4985376;28;20031;-75
2021/12/02 04:31:32;;;;;;;17.67;3.40;;;;;;;;;;4973366;28;20398;-75
2021/12/02 04:33:58;;;;;;;11.60;1.80;;;;;;;;;;4990009;28;20049;-75
2021/12/02 04:36:24;;;;;;;10.73;1.48;;;;;;;;;;4979621;28;20026;-73
2021/12/02 04:38:51;;;;;;;8.13;1.40;;;;;;;;;;4987393;28;20108;-74
2021/12/02 04:41:18;;;;;;;9.43;1.23;;;;;;;;;;4979386;28;20061;-74
2021/12/02 04:43:44;;;;;;;14.38;2.15;;;;;;;;;;4991662;28;20034;-75
2021/12/02 04:46:10;;;;;;;10.48;1.50;;;;;;;;;;4981198;28;20825;-73
2021/12/02 04:48:36;;;;;;;7.30;1.67;;;;;;;;;;4996464;28;20021;-75
2021/12/02 04:51:04;;;;;;;8.27;1.30;;;;;;;;;;4974961;28;20030;-75
2021/12/02 04:53:30;;;;;;;9.23;1.10;;;;;;;;;;4977686;28;20034;-75
2021/12/02 04:55:59;;;;;;;11.52;1.33;;;;;;;;;;4970118;28;20484;-76
2021/12/02 04:58:28;;;;;;;7.45;1.25;;;;;;;;;;4974341;28;20114;-74
2021/12/02 05:00:55;;;;;;;9.90;1.25;;;;;;;;;;4971027;28;20046;-74
2021/12/02 05:03:21;;;;;;;8.18;1.60;;;;;;;;;;4996205;28;20030;-76
2021/12/02 05:05:47;;;;;;;8.95;1.83;;;;;;;;;;4977702;28;20041;-75
2021/12/02 05:08:13;;;;;;;14.70;1.50;;;;;;;;;;4975178;28;20081;-75
2021/12/02 05:10:39;;;;;;;10.07;1.15;;;;;;;;;;4974517;28;20026;-75
2021/12/02 05:13:05;;;;;;;13.77;3.10;;;;;;;;;;4975456;28;20039;-75
2021/12/02 05:15:31;;;;;;;9.52;1.85;;;;;;;;;;4972288;28;20035;-74
2021/12/02 05:17:57;;;;;;;9.32;1.50;;;;;;;;;;4976580;28;20046;-76
2021/12/02 05:20:23;;;;;;;10.93;2.08;;;;;;;;;;4968381;28;20062;-75
2021/12/02 05:22:50;;;;;;;8.82;2.17;;;;;;;;;;4972916;28;20036;-74
2021/12/02 05:25:16;;;;;;;10.88;2.05;;;;;;;;;;4973771;28;20243;-74
2021/12/02 05:27:42;;;;;;;11.82;2.45;;;;;;;;;;4976253;28;20031;-72
2021/12/02 05:30:08;;;;;;;12.25;2.13;;;;;;;;;;4975077;28;20106;-73
2021/12/02 05:32:34;;;;;;;14.55;3.53;;;;;;;;;;4976032;28;20035;-73
2021/12/02 05:35:01;;;;;;;12.23;2.22;;;;;;;;;;4976245;28;20026;-73
2021/12/02 05:37:27;;;;;;;17.45;2.42;;;;;;;;;;4978827;28;20088;-75
2021/12/02 05:39:54;;;;;;;10.65;1.88;;;;;;;;;;4975490;28;20399;-73
2021/12/02 05:42:20;;;;;;;12.18;2.45;;;;;;;;;;4972935;28;20023;-74
2021/12/02 05:44:46;;;;;;;16.20;2.22;;;;;;;;;;4967731;28;20039;-74
2021/12/02 05:47:12;;;;;;;7.22;1.30;;;;;;;;;;4973614;28;20391;-73
2021/12/02 05:49:38;;;;;;;7.07;1.13;;;;;;;;;;4961463;28;20043;-74
2021/12/02 05:52:04;;;;;;;6.25;1.10;;;;;;;;;;4965337;28;20046;-74
2021/12/02 05:54:30;;;;;;;9.80;1.75;;;;;;;;;;4984029;28;20027;-74
2021/12/02 05:56:56;;;;;;;6.78;1.52;;;;;;;;;;4967328;28;20058;-74
2021/12/02 05:59:24;;;;;;;12.85;1.60;;;;;;;;;;4969101;28;20508;-74
2021/12/02 06:01:50;;;;;;;10.52;2.45;;;;;;;;;;4974130;28;20085;-73
2021/12/02 06:04:16;;;;;;;9.95;1.23;;;;;;;;;;4966396;28;20035;-75
2021/12/02 06:06:42;;;;;;;5.15;1.40;;;;;;;;;;4965487;28;20035;-73
2021/12/02 06:09:08;;;;;;;4.30;1.40;;;;;;;;;;4965350;28;20039;-73
2021/12/02 06:11:34;;;;;;;5.78;1.40;;;;;;;;;;4963000;28;20439;-75
2021/12/02 06:14:00;;;;;;;8.43;1.38;;;;;;;;;;4978614;28;20388;-75
2021/12/02 06:16:26;;;;;;;9.20;1.20;;;;;;;;;;4972102;28;20042;-74
2021/12/02 06:18:52;;;;;;;4.68;1.02;;;;;;;;;;4969296;28;20114;-74
2021/12/02 06:21:18;;;;;;;7.47;1.15;;;;;;;;;;4969583;28;20169;-76
2021/12/02 06:23:45;;;;;;;4.60;1.00;;;;;;;;;;4973824;28;20499;-75
2021/12/02 06:26:11;;;;;;;10.10;1.77;;;;;;;;;;4967439;28;20038;-74
2021/12/02 06:28:37;;;;;;;5.68;1.17;;;;;;;;;;4984158;28;20031;-74
2021/12/02 06:31:03;;;;;;;9.57;1.33;;;;;;;;;;4966902;28;20085;-76
2021/12/02 06:33:30;;;;;;;12.07;1.23;;;;;;;;;;4970650;28;20506;-76
2021/12/02 06:35:56;;;;;;;5.18;1.02;;;;;;;;;;4976511;28;20037;-74
2021/12/02 06:38:22;;;;;;;3.75;1.30;;;;;;;;;;4974143;28;20042;-75
2021/12/02 06:40:49;;;;;;;10.75;1.20;;;;;;;;;;4976421;28;20033;-75
2021/12/02 06:43:16;;;;;;;10.65;1.55;;;;;;;;;;4973609;28;20113;-74
2021/12/02 06:45:42;;;;;;;5.20;1.20;;;;;;;;;;4969952;28;20097;-75
2021/12/02 06:48:08;;;;;;;9.32;1.50;;;;;;;;;;4972360;28;20055;-75
2021/12/02 06:50:36;;;;;;;18.48;1.95;;;;;;;;;;4969965;28;20057;-75
2021/12/02 06:53:03;;;;;;;9.25;1.98;;;;;;;;;;4966946;28;20039;-75
2021/12/02 06:55:29;;;;;;;11.15;1.30;;;;;;;;;;4971872;28;20034;-75
2021/12/02 06:57:55;;;;;;;8.65;1.20;;;;;;;;;;4971583;28;20038;-75
2021/12/02 07:00:22;;;;;;;12.73;1.67;;;;;;;;;;4972672;28;20054;-75
2021/12/02 07:02:49;;;;;;;12.35;1.63;;;;;;;;;;4975609;28;20042;-75
2021/12/02 07:05:16;;;;;;;12.57;1.90;;;;;;;;;;4984368;28;20034;-74
2021/12/02 07:07:42;;;;;;;11.27;1.38;;;;;;;;;;4972334;28;20034;-75
2021/12/02 07:10:08;;;;;;;10.32;2.35;;;;;;;;;;4972209;28;20027;-73
2021/12/02 07:12:37;;;;;;;8.68;2.10;;;;;;;;;;4970329;28;20261;-74
2021/12/02 07:15:09;;;;;;;17.98;2.83;;;;;;;;;;4970444;28;20058;-74
2021/12/02 07:17:36;;;;;;;7.57;1.05;;;;;;;;;;4983775;28;20027;-73
2021/12/02 07:20:03;;;;;;;10.13;1.25;;;;;;;;;;4986485;28;20492;-74
2021/12/02 07:22:29;;;;;;;5.63;1.20;;;;;;;;;;4983913;28;20031;-73
2021/12/02 07:24:55;;;;;;;3.65;1.45;;;;;;;;;;4974646;28;20452;-74
2021/12/02 07:27:21;;;;;;;6.22;1.00;;;;;;;;;;4970380;28;20038;-75
2021/12/02 07:29:47;;;;;;;8.00;1.17;;;;;;;;;;4981223;28;20034;-75
2021/12/02 07:32:14;;;;;;;5.95;1.00;;;;;;;;;;4997080;28;20046;-74
2021/12/02 07:34:45;;;;;;;7.38;1.00;;;;;;;;;;4994631;28;20031;-74
2021/12/02 07:37:15;;;;;;;8.48;1.30;;;;;;;;;;4985440;28;20034;-76
2021/12/02 07:39:41;;;;;;;5.55;1.42;;;;;;;;;;4989344;28;20037;-75
2021/12/02 07:42:07;;;;;;;9.55;1.70;;;;;;;;;;4992890;28;20034;-75
2021/12/02 07:44:36;;;;;;;9.85;1.33;;;;;;;;;;4979239;28;20043;-74
2021/12/02 07:47:05;;;;;;;5.85;1.15;;;;;;;;;;4979223;28;20027;-74
2021/12/02 07:49:31;;;;;;;10.75;1.05;;;;;;;;;;4979422;28;20118;-74
2021/12/02 07:51:59;;;;;;;9.57;1.30;;;;;;;;;;4969902;28;20153;-74
2021/12/02 07:54:26;;;;;;;3.90;1.13;;;;;;;;;;4973843;28;20034;-74
2021/12/02 07:56:53;;;;;;;8.25;1.25;;;;;;;;;;4974059;28;20030;-74
2021/12/02 07:59:19;;;;;;;9.05;1.20;;;;;;;;;;4979550;28;20055;-75
2021/12/02 08:01:46;;;;;;;11.82;1.58;;;;;;;;;;4967603;28;20034;-75
2021/12/02 08:04:12;;;;;;;7.03;1.40;;;;;;;;;;4970087;28;20031;-75
2021/12/02 08:06:39;;;;;;;8.30;1.10;;;;;;;;;;5000549;28;20128;-75
2021/12/02 08:09:06;;;;;;;10.38;1.50;;;;;;;;;;4975812;28;20037;-75
2021/12/02 08:11:32;;;;;;;8.52;1.27;;;;;;;;;;4977193;28;20031;-75
2021/12/02 08:13:58;;;;;;;8.32;1.83;;;;;;;;;;4980913;28;20049;-75
2021/12/02 08:16:24;;;;;;;7.95;1.50;;;;;;;;;;4974301;28;20053;-75
2021/12/02 08:18:50;;;;;;;8.98;1.75;;;;;;;;;;4984091;28;20184;-75
2021/12/02 08:21:17;;;;;;;10.77;1.67;;;;;;;;;;4980220;28;20066;-75
2021/12/02 08:23:43;;;;;;;10.70;1.80;;;;;;;;;;4983664;28;20399;-75
2021/12/02 08:26:12;;;;;;;8.23;1.63;;;;;;;;;;4972252;28;20097;-75
2021/12/02 08:28:38;;;;;;;7.38;1.50;;;;;;;;;;4978035;28;20027;-75
2021/12/02 08:31:04;;;;;;;6.00;1.20;;;;;;;;;;4970369;28;20047;-76
2021/12/02 08:33:31;;;;;;;11.43;1.38;;;;;;;;;;4984075;28;20031;-75
2021/12/02 08:36:02;;;;;;;15.73;2.63;;;;;;;;;;4988293;28;20392;-76
2021/12/02 08:38:32;;;;;;;8.98;1.77;;;;;;;;;;4970982;28;20033;-75
2021/12/02 08:41:00;;;;;;;16.17;2.35;;;;;;;;;;4959579;28;20042;-76
2021/12/02 08:43:29;;;;;;;10.38;2.10;;;;;;;;;;4979192;28;20045;-76
2021/12/02 08:45:56;;;;;;;11.00;2.17;;;;;;;;;;4971663;28;20484;-75
2021/12/02 08:48:22;;;;;;;6.85;1.95;;;;;;;;;;4978090;28;20437;-75
2021/12/02 08:50:48;;;;;;;8.60;2.97;;;;;;;;;;4983276;28;20085;-75
2021/12/02 08:53:14;;;;;;;10.05;2.58;;;;;;;;;;4975799;28;20487;-76
2021/12/02 08:55:40;;;;;;;16.33;2.50;;;;;;;;;;4973947;28;20536;-74
2021/12/02 08:58:09;;;;;;;12.45;2.45;;;;;;;;;;4978685;28;20073;-75
2021/12/02 09:00:36;;;;;;;14.70;3.85;;;;;;;;;;4963930;28;20976;-75
2021/12/02 09:03:06;;;;;;;8.88;1.88;;;;;;;;;;4986808;28;20121;-75
2021/12/02 09:05:32;;;;;;;14.02;1.73;;;;;;;;;;4970010;28;20046;-75
2021/12/02 09:07:58;;;;;;;7.95;1.80;;;;;;;;;;4973611;28;20027;-75
2021/12/02 09:10:26;;;;;;;8.55;1.50;;;;;;;;;;4972020;28;20052;-74
2021/12/02 09:12:52;;;;;;;6.40;1.80;;;;;;;;;;4969960;28;20102;-74
2021/12/02 09:15:18;;;;;;;9.23;1.83;;;;;;;;;;4976369;28;20076;-74
2021/12/02 09:17:44;;;;;;;3.63;1.40;;;;;;;;;;4971797;28;20027;-75
2021/12/02 09:20:12;;;;;;;5.53;1.30;;;;;;;;;;4975763;28;20030;-76
2021/12/02 09:22:39;;;;;;;2.75;1.15;;;;;;;;;;4968691;28;20396;-75
2021/12/02 09:25:06;;;;;;;4.25;1.02;;;;;;;;;;4973297;28;20038;-76
2021/12/02 09:27:32;;;;;;;7.72;1.40;;;;;;;;;;4966551;28;20073;-74
2021/12/02 09:29:58;;;;;;;8.15;2.55;;;;;;;;;;4969131;28;20489;-74
2021/12/02 09:32:24;;;;;;;6.32;2.30;;;;;;;;;;4966695;28;20031;-76
2021/12/02 09:34:52;;;;;;;4.60;1.10;;;;;;;;;;4983325;28;20124;-74
2021/12/02 09:37:18;;;;;;;4.82;1.10;;;;;;;;;;4972076;28;20030;-73
2021/12/02 09:39:44;;;;;;;6.60;1.30;;;;;;;;;;4975496;28;20424;-74
2021/12/02 09:42:10;;;;;;;4.15;1.10;;;;;;;;;;4984173;28;20130;-74
2021/12/02 09:44:40;;;;;;;2.65;1.48;;;;;;;;;;4985401;28;20034;-75
2021/12/02 09:47:06;;;;;;;3.40;1.17;;;;;;;;;;4975304;28;20035;-74
2021/12/02 09:49:33;;;;;;;5.63;1.60;;;;;;;;;;4971370;28;20031;-74
2021/12/02 09:52:04;;;;;;;2.90;1.30;;;;;;;;;;4973471;28;20047;-75
2021/12/02 09:54:43;;;;;;;3.42;1.30;;;;;;;;;;4972727;28;20035;-75
2021/12/02 09:57:13;;;;;;;2.10;0.85;;;;;;;;;;4969469;28;20034;-74
2021/12/02 10:02:09;;;;;;;3.47;1.10;;;;;;;;;;4968938;28;20182;-74
2021/12/02 10:04:41;;;;;;;3.45;0.90;;;;;;;;;;4972937;28;20054;-74
2021/12/02 10:09:55;;;;;;;4.53;2.13;;;;;;;;;;4972225;28;20126;-74
2021/12/02 10:12:23;;;;;;;6.90;2.25;;;;;;;;;;4990691;28;20066;-75
2021/12/02 10:14:51;;;;;;;2.53;1.20;;;;;;;;;;4965603;28;20053;-74
2021/12/02 10:20:18;;;;;;;2.55;0.93;;;;;;;;;;4971432;28;20034;-74
2021/12/02 10:23:04;;;;;;;3.35;1.08;;;;;;;;;;4966429;28;20046;-72
2021/12/02 10:25:31;;;;;;;3.60;1.67;;;;;;;;;;4968332;28;20055;-73
2021/12/02 10:28:10;;;;;;;7.03;1.50;;;;;;;;;;4980675;28;20133;-74
2021/12/02 10:30:40;;;;;;;5.75;1.10;;;;;;;;;;4971744;28;20030;-73
2021/12/02 10:33:06;;;;;;;7.45;1.33;;;;;;;;;;4982676;28;20098;-73
2021/12/02 10:35:43;;;;;;;6.30;1.50;;;;;;;;;;4981190;28;20081;-74
2021/12/02 10:38:33;;;;;;;7.47;1.50;;;;;;;;;;4991819;28;20038;-73
2021/12/02 10:41:00;;;;;;;4.07;1.60;;;;;;;;;;4977878;28;20488;-73
2021/12/02 10:43:26;;;;;;;4.38;1.90;;;;;;;;;;4961826;28;20094;-73
2021/12/02 10:45:52;;;;;;;4.10;1.63;;;;;;;;;;4989381;28;20031;-74
2021/12/02 10:48:19;;;;;;;9.50;1.70;;;;;;;;;;4977643;28;20101;-74
2021/12/02 10:50:45;;;;;;;7.60;2.40;;;;;;;;;;4993391;28;20123;-74
2021/12/02 10:53:11;;;;;;;3.17;1.67;;;;;;;;;;4987442;28;20341;-72
2021/12/02 10:55:37;;;;;;;4.43;1.58;;;;;;;;;;4972206;28;20043;-73
2021/12/02 10:58:03;;;;;;;7.40;2.05;;;;;;;;;;4970664;28;20133;-73
2021/12/02 11:00:31;;;;;;;5.63;2.13;;;;;;;;;;4971596;28;20039;-73
2021/12/02 11:02:58;;;;;;;5.85;2.58;;;;;;;;;;4975822;28;20118;-74
2021/12/02 11:05:30;;;;;;;8.68;2.67;;;;;;;;;;4968380;28;20026;-73
2021/12/02 11:07:57;;;;;;;10.90;2.60;;;;;;;;;;4964902;28;20039;-74
2021/12/02 11:10:24;;;;;;;5.78;2.55;;;;;;;;;;4971863;28;20117;-73
2021/12/02 11:12:52;;;;;;;8.82;3.05;;;;;;;;;;4983376;28;20054;-73
2021/12/02 11:15:22;;;;;;;10.18;2.97;;;;;;;;;;4971132;28;20183;-74
2021/12/02 11:17:49;;;;;;;10.68;4.10;;;;;;;;;;4988301;28;20031;-74
2021/12/02 11:20:17;;;;;;;8.52;3.72;;;;;;;;;;4981210;28;20038;-74
2021/12/02 11:22:43;;;;;;;6.40;3.90;;;;;;;;;;4968295;28;20042;-74
2021/12/02 11:25:10;;;;;;;8.20;3.42;;;;;;;;;;4970212;28;20397;-74
2021/12/02 11:27:38;;;;;;;7.65;3.42;;;;;;;;;;4986602;28;20396;-74
2021/12/02 11:30:13;;;;;;;17.90;3.10;;;;;;;;;;4988171;28;20126;-74
2021/12/02 11:32:41;;;;;;;10.80;3.50;;;;;;;;;;4971874;28;20030;-74
2021/12/02 11:35:13;;;;;;;6.13;3.05;;;;;;;;;;4972026;28;20050;-74
2021/12/02 11:37:41;;;;;;;11.48;3.67;;;;;;;;;;4972204;28;20031;-73
2021/12/02 11:40:09;;;;;;;9.60;3.25;;;;;;;;;;4968697;28;20034;-74
2021/12/02 11:42:37;;;;;;;7.57;3.25;;;;;;;;;;4975879;28;20126;-74
2021/12/02 11:45:04;;;;;;;9.02;3.22;;;;;;;;;;4964139;28;20035;-71
2021/12/02 11:47:30;;;;;;;13.15;3.90;;;;;;;;;;4967543;28;20033;-73
2021/12/02 11:49:59;;;;;;;6.57;3.60;;;;;;;;;;4983197;28;20038;-74
2021/12/02 11:52:25;;;;;;;11.38;3.80;;;;;;;;;;4970123;28;20113;-74
2021/12/02 11:54:52;;;;;;;10.30;3.40;;;;;;;;;;4962914;28;20035;-73
2021/12/02 11:57:20;;;;;;;8.52;4.05;;;;;;;;;;4965288;28;20327;-75
2021/12/02 11:59:46;;;;;;;11.35;4.20;;;;;;;;;;4971771;28;20520;-73
2021/12/02 12:02:16;;;;;;;10.68;4.57;;;;;;;;;;4963975;28;20035;-73
2021/12/02 12:04:49;;;;;;;9.90;4.07;;;;;;;;;;4965901;28;20034;-73
2021/12/02 12:07:15;;;;;;;11.32;4.72;;;;;;;;;;4965939;28;20027;-73
2021/12/02 12:09:41;;;;;;;15.13;5.22;;;;;;;;;;4970757;28;20029;-73
2021/12/02 12:12:10;;;;;;;8.93;4.80;;;;;;;;;;4967630;28;20038;-73
2021/12/02 12:14:41;;;;;;;7.45;3.78;;;;;;;;;;4988665;28;20026;-72
2021/12/02 12:17:10;;;;;;;7.03;2.72;;;;;;;;;;4976056;28;20106;-72
2021/12/02 12:19:41;;;;;;;10.73;3.00;;;;;;;;;;4976998;28;20078;-73
2021/12/02 12:22:13;;;;;;;4.05;2.70;;;;;;;;;;4972166;28;20086;-73
2021/12/02 12:24:52;;;;;;;4.97;2.28;;;;;;;;;;4973692;28;20030;-73
2021/12/02 12:27:20;;;;;;;6.18;2.08;;;;;;;;;;4989318;28;20239;-72
2021/12/02 12:29:48;;;;;;;8.40;2.58;;;;;;;;;;4971528;28;20031;-72
2021/12/02 12:35:01;;;;;;;7.97;2.40;;;;;;;;;;4966992;28;20476;-74
2021/12/02 12:37:33;;;;;;;6.20;2.13;;;;;;;;;;4972709;28;20022;-73
2021/12/02 12:40:14;;;;;;;6.45;2.42;;;;;;;;;;4978363;28;20034;-73
2021/12/02 12:42:40;;;;;;;;;;;;;;;;;;4973062;28;20030;-73
2021/12/02 12:45:07;;;;;;;5.07;2.13;;;;;;;;;;4975713;28;20404;-73
2021/12/02 12:47:42;;;;;;;3.83;1.60;;;;;;;;;;4971439;28;20047;-74
2021/12/02 12:50:26;;;;;;;5.90;2.47;;;;;;;;;;4970247;28;20037;-71
2021/12/02 12:53:16;;;;;;;6.57;1.80;;;;;;;;;;4968412;28;20400;-71
2021/12/02 12:55:42;;;;;;;3.85;1.52;;;;;;;;;;4975151;28;20035;-73
2021/12/02 12:58:10;;;;;;;4.97;1.38;;;;;;;;;;4973207;28;20034;-73
2021/12/02 13:00:41;;;;;;;6.45;1.60;;;;;;;;;;4982856;28;20178;-72
2021/12/02 13:03:17;;;;;;;5.20;1.77;;;;;;;;;;4972544;28;20032;-73
2021/12/02 13:05:55;;;;;;;5.75;2.95;;;;;;;;;;4969808;28;20039;-73
2021/12/02 13:08:21;;;;;;;4.45;1.60;;;;;;;;;;4969732;28;20626;-73
2021/12/02 13:10:58;;;;;;;7.18;1.80;;;;;;;;;;4982689;28;20075;-73
2021/12/02 13:13:28;;;;;;;4.68;1.80;;;;;;;;;;4969614;28;20266;-73
2021/12/02 13:16:07;;;;;;;5.65;2.33;;;;;;;;;;4981966;28;20043;-73
2021/12/02 13:18:34;;;;;;;9.13;1.77;;;;;;;;;;4972430;28;20113;-73
2021/12/02 13:21:20;;;;;;;6.18;1.88;;;;;;;;;;4974393;28;20031;-72
2021/12/02 13:23:56;;;;;;;7.15;2.10;;;;;;;;;;4987457;28;20037;-73
2021/12/02 13:26:33;;;;;;;6.45;2.17;;;;;;;;;;4967891;28;20031;-72
2021/12/02 13:29:04;;;;;;;6.35;1.80;;;;;;;;;;4966170;28;20127;-72
2021/12/02 13:31:30;;;;;;;;;;;;;;;;;;4973615;28;20042;-73
2021/12/02 13:34:04;;;;;;;6.07;2.00;;;;;;;;;;4973062;28;20317;-73
2021/12/02 13:36:41;;;;;;;6.05;2.15;;;;;;;;;;4974233;28;20034;-73
2021/12/02 13:39:10;;;;;;;7.68;1.85;;;;;;;;;;4979905;28;20049;-74
2021/12/02 13:41:39;;;;;;;5.60;1.80;;;;;;;;;;4982853;28;20023;-73
2021/12/02 13:44:13;;;;;;;10.45;2.08;;;;;;;;;;4984018;28;20519;-74
2021/12/02 13:46:41;;;;;;;7.30;1.70;;;;;;;;;;4969773;28;20069;-72
2021/12/02 13:49:12;;;;;;;9.57;2.10;;;;;;;;;;4968576;28;20023;-73
2021/12/02 13:54:50;;;;;;;4.88;1.70;;;;;;;;;;4957393;28;19918;-73
2021/12/02 13:57:41;;;;;;;6.07;2.30;;;;;;;;;;4970139;28;20135;-73
2021/12/02 14:00:07;;;;;;;;;;;;;;;;;;4970908;28;20043;-73
2021/12/02 14:02:34;;;;;;;8.25;1.80;;;;;;;;;;4973248;28;20290;-73
2021/12/02 14:05:00;;;;;;;6.32;2.08;;;;;;;;;;4979919;28;20042;-73
2021/12/02 14:07:27;;;;;;;7.22;2.08;;;;;;;;;;4965963;28;20039;-74
2021/12/02 14:09:53;;;;;;;9.63;2.28;;;;;;;;;;4976380;28;20105;-74
2021/12/02 14:12:21;;;;;;;12.48;2.17;;;;;;;;;;4979238;28;20022;-73
2021/12/02 14:15:01;;;;;;;9.30;1.92;;;;;;;;;;4974403;28;20495;-72
2021/12/02 14:17:30;;;;;;;6.85;1.88;;;;;;;;;;4969138;28;20027;-73
2021/12/02 14:20:02;;;;;;;5.53;2.25;;;;;;;;;;4970582;28;20045;-72
2021/12/02 14:22:29;;;;;;;7.28;2.00;;;;;;;;;;4969736;28;20027;-72
2021/12/02 14:24:55;;;;;;;13.45;2.03;;;;;;;;;;4966835;28;20395;-74
2021/12/02 14:27:21;;;;;;;5.00;1.60;;;;;;;;;;4966331;28;20069;-73
2021/12/02 14:29:47;;;;;;;8.10;1.30;;;;;;;;;;4965804;28;20051;-74
2021/12/02 14:32:13;;;;;;;5.10;1.35;;;;;;;;;;4970190;28;20026;-74
2021/12/02 14:34:39;;;;;;;8.52;1.50;;;;;;;;;;4970503;28;20113;-74
2021/12/02 14:37:10;;;;;;;7.05;1.40;;;;;;;;;;4967427;28;20125;-74
2021/12/02 14:39:39;;;;;;;9.35;1.90;;;;;;;;;;4966869;28;20035;-74
2021/12/02 14:42:05;;;;;;;4.28;1.13;;;;;;;;;;4974252;28;20045;-73
2021/12/02 14:44:36;;;;;;;8.27;1.35;;;;;;;;;;4970721;28;20105;-73
2021/12/02 14:47:03;;;;;;;10.52;1.77;;;;;;;;;;4966684;28;20034;-73
2021/12/02 14:49:33;;;;;;;7.38;1.10;;;;;;;;;;4967941;28;20508;-72
2021/12/02 14:51:59;;;;;;;6.35;1.40;;;;;;;;;;4964325;28;20039;-72
2021/12/02 14:54:46;;;;;;;6.80;1.20;;;;;;;;;;4993507;28;20394;-72
2021/12/02 14:57:14;;;;;;;7.93;1.50;;;;;;;;;;4969653;28;20069;-73
2021/12/02 14:59:44;;;;;;;4.57;1.13;;;;;;;;;;4966753;28;20022;-71
2021/12/02 15:02:17;;;;;;;4.13;1.10;;;;;;;;;;4969561;28;20093;-73
2021/12/02 15:04:44;;;;;;;3.20;0.80;;;;;;;;;;4969177;28;20031;-73
2021/12/02 15:07:21;;;;;;;5.07;0.80;;;;;;;;;;4966709;28;20039;-73
2021/12/02 15:09:48;;;;;;;1.92;0.70;;;;;;;;;;4966573;28;20077;-74
2021/12/02 15:12:20;;;;;;;2.80;0.65;;;;;;;;;;4983294;28;20027;-73
2021/12/02 15:14:58;;;;;;;2.42;0.68;;;;;;;;;;4970595;28;20059;-74
2021/12/02 15:17:43;;;;;;;1.70;0.70;;;;;;;;;;4971132;28;20066;-74
2021/12/02 15:20:12;;;;;;;2.38;0.77;;;;;;;;;;4981860;28;20038;-73